METAR Data
IDs: Format: Raw Decoded Include TAF

Data at: 1205 UTC 15 Dec 2018

PAKH 151156Z AUTO 02015KT 10SM -RA SCT025 BKN032 OVC043 02/01 A2898 RMK AO2 SLP814 P0001 60013 70013 T00220006 10022 20006 51003 FZRANO $
PAKH 151056Z AUTO 02016KT 10SM -RA BKN025 OVC032 02/01 A2898 RMK AO2 UPB06E07SNB07E18 SLP814 P0002 T00170011 FZRANO $
PAKH 151026Z AUTO 01017KT 10SM -RA SCT014 BKN024 OVC029 01/01 A2897 RMK AO2 UPB06E07SNB07E18 P0002 FZRANO $
PAKH 150956Z AUTO 03012KT 10SM -RA BKN012 OVC021 01/01 A2899 RMK AO2 UPB11E15B47E50RAB50SNE11B15E47 SLP817 P0005 T00110006 FZRANO $
PAKH 150856Z AUTO 6SM -SN BR OVC012 01/00 A2897 RMK AO2 SLP811 P0002 60005 T00060000 400171028 53017 FZRANO $
PAKH 150809Z AUTO 4SM -SN BR OVC014 01/00 A2895 RMK AO2 P0000 FZRANO $
PAKH 150756Z AUTO 2 1/2SM -SN BR OVC012 01/00 A2895 RMK AO2 VIS 1 3/4V4 SLP805 P0002 T00060000 FZRANO $
PAKH 150732Z AUTO 2SM -SN BR SCT010 BKN014 OVC021 01/00 A2895 RMK AO2 P0001 FZRANO $
PAKH 150710Z AUTO 4SM -SN BR SCT011 OVC019 01/00 A2892 RMK AO2 P0000 FZRANO $
PAKH 150656Z AUTO 2SM -SN BR OVC013 01/00 A2893 RMK AO2 VIS 1 1/2V4 SLP797 P0001 T00060000 FZRANO $
PAKH 150637Z AUTO 2 1/2SM -SN BR OVC013 01/00 A2893 RMK AO2 VIS 1 3/4V4 P0001 FZRANO $
PAKH 150629Z AUTO 3SM -SN BR OVC015 01/00 A2893 RMK AO2 P0000 FZRANO $
PAKH 150616Z AUTO 3SM -SN BR OVC013 01/00 A2892 RMK AO2 P0000 FZRANO $
PAKH 150533Z AUTO 2SM -SN BR BKN009 OVC013 01/M01 A2892 RMK AO2 RAE0458SNB0458 CIG 006V011 P0000 FZRANO $
PAKH 150525Z AUTO 1 3/4SM -SN BR SCT007 BKN013 OVC022 01/M01 A2891 RMK AO2 RAE0458SNB0458 P0000 FZRANO $
PAKH 150520Z AUTO 3SM -SN BR BKN011 BKN015 OVC022 01/M01 A2892 RMK AO2 RAE0458SNB0458 CIG 007V011 P0000 FZRANO $
PAKH 150456Z AUTO 03020G25KT 9SM -RA BKN019 OVC026 01/M01 A2891 RMK AO2 RAE0358B40SNB0358E40 SLP792 P0000 T00061006 FZRANO $
PAKH 150410Z AUTO 3SM -SN BR SCT010 BKN024 OVC031 01/M01 A2892 RMK AO2 RAE0358SNB0358 P0000 FZRANO $
PAKH 150406Z AUTO 2 1/2SM -SN BR BKN012 BKN022 OVC031 01/M01 A2892 RMK AO2 VIS 1 1/4V4 RAE0358SNB0358 P0000 FZRANO $
PAKH 150356Z AUTO 03019G22KT 10SM -RA FEW014 BKN028 OVC033 01/M01 A2892 RMK AO2 UPB32E34RAB34 SLP794 P0000 T00111011 FZRANO $
PAKH 150343Z AUTO 04015KT 10SM -RA SCT019 BKN026 OVC038 02/M01 A2892 RMK AO2 UPB32E34RAB34 P0000 FZRANO $
PAKH 150256Z AUTO 02015KT 10SM SCT030 BKN038 OVC080 02/M02 A2892 RMK AO2 SLP795 T00171022 56008 FZRANO $
PAKH 150156Z AUTO 02017G21KT 10SM BKN033 OVC040 02/M03 A2893 RMK AO2 SLP797 T00171033 FZRANO $
PAKH 150056Z AUTO 04015KT 10SM FEW032 BKN050 OVC070 02/M03 A2894 RMK AO2 SLP801 T00171033 FZRANO $
PAKH 142356Z AUTO 04013KT 10SM BKN065 OVC080 02/M03 A2895 RMK AO2 SLP804 60000 T00171028 10017 20000 58019 FZRANO $
PAKH 142256Z AUTO 03018G23KT 10SM BKN065 OVC080 01/M03 A2897 RMK AO2 SLP810 T00111028 FZRANO $
PAKH 142156Z AUTO 05012KT 10SM SCT025 BKN043 OVC065 01/M02 A2900 RMK AO2 RAB33E42UPB42E46 SLP820 P0000 T00111022 FZRANO $
PAKH 142056Z AUTO 04012KT 10SM FEW037 OVC065 02/M03 A2901 RMK AO2 SLP823 T00171033 58016 FZRANO $
PAKH 141856Z AUTO 05011KT 10SM FEW039 SCT060 BKN095 01/M04 A2905 RMK AO2 SLP836 T00061039 FZRANO $
PAKH 141756Z AUTO 04009KT 10SM FEW024 BKN090 BKN110 00/M03 A2905 RMK AO2 SLP840 60000 T00001033 10000 21022 56025 FZRANO $
PAKH 141749Z AUTO 04011KT 10SM SCT022 BKN075 OVC110 00/M04 A2906 RMK AO2 FZRANO $
PAKH 141656Z AUTO 03012KT 10SM OVC022 00/M03 A2907 RMK AO2 SLP845 T00001033 FZRANO $
PAKH 141556Z AUTO 04009KT 10SM BKN024 BKN090 M01/M04 A2910 RMK AO2 SLP856 T10061039 FZRANO $
PAKH 141456Z AUTO 02012KT 10SM CLR M01/M04 A2913 RMK AO2 SLP865 60000 T10061039 58031 FZRANO $
PAKH 141356Z AUTO 04009KT 10SM FEW028 BKN038 OVC095 M02/M03 A2916 RMK AO2 UPB05E12SNE05 SLP877 P0000 T10171033 FZRANO $
PAKH 141256Z AUTO 03008KT 5SM -SN BR FEW016 SCT024 BKN035 M01/M03 A2919 RMK AO2 WSHFT 1236 SNB27 SLP887 P0000 T10111028 FZRANO $
PAKH 141252Z AUTO 03010KT 4SM -SN BR FEW016 BKN030 OVC042 M01/M03 A2919 RMK AO2 WSHFT 1236 SNB27 P0000 FZRANO $
PAKH 141249Z AUTO 03010KT 3SM -SN BR FEW016 BKN025 OVC042 M01/M03 A2920 RMK AO2 SNB27 P0000 FZRANO $
PAKH 141244Z AUTO 05011KT 2 1/2SM -SN BR FEW016 BKN030 OVC042 M01/M03 A2920 RMK AO2 SNB27 P0000 FZRANO $
PAKH 141230Z AUTO 10012KT 9SM -SN BKN029 BKN050 OVC060 00/M03 A2921 RMK AO2 SNB27 P0000 FZRANO $
PAKH 141156Z AUTO 03008KT 10SM FEW050 BKN070 OVC085 M02/M05 A2922 RMK AO2 SLP897 70009 T10171050 11006 21039 58020 FZRANO $
PAKH 141056Z AUTO 03009KT 10SM BKN055 OVC100 M02/M04 A2924 RMK AO2 SLP902 T10221044 FZRANO $
PAKH 140956Z AUTO 02009KT 10SM FEW047 BKN055 M02/M06 A2927 RMK AO2 SLP912 T10221056 FZRANO $
PAKH 140856Z AUTO 04008KT 10SM OVC055 M02/M06 A2928 RMK AO2 SLP917 T10171061 400111039 58012 FZRANO $
PAKH 140756Z AUTO 00000KT 10SM FEW055 M02/M06 A2930 RMK AO2 SLP924 T10221061 FZRANO $
PAKH 140656Z AUTO 25003KT 10SM CLR M02/M07 A2931 RMK AO2 SLP927 T10221067 FZRANO $
PAKH 140556Z AUTO 27007KT 10SM SCT042 BKN060 M01/M06 A2932 RMK AO2 SLP929 60003 T10061056 10006 21017 56005 FZRANO $
PAKH 140456Z AUTO 23009KT 10SM SCT043 SCT049 BKN060 00/M05 A2932 RMK AO2 RAB37E56 SLP930 P0000 T00001050 FZRANO $
PAKH 140356Z AUTO 23007KT 10SM SCT040 BKN050 BKN065 M01/M04 A2933 RMK AO2 SLP932 T10061044 FZRANO $
PAKH 140256Z AUTO 26010KT 10SM FEW060 M01/M03 A2933 RMK AO2 SNB02E14 SLP935 P0001 60003 T10061033 55004 FZRANO $
PAKH 140156Z AUTO 26005KT 10SM FEW009 SCT019 SCT041 M02/M03 A2933 RMK AO2 UPB44E54SNB02E44 SLP933 P0002 T10171033 FZRANO $
PAKH 140146Z AUTO 24005KT 9SM UP FEW006 SCT012 BKN019 M02/M03 A2933 RMK AO2 UPB44SNB02E44 P0001 FZRANO $
PAKH 140139Z AUTO 21005KT 3SM -SN BR SCT011 BKN019 OVC033 M01/M03 A2934 RMK AO2 SNB02 P0000 FZRANO $
PAKH 140124Z AUTO 29007KT 1 3/4SM -SN BR FEW013 BKN022 OVC043 M01/M02 A2934 RMK AO2 VIS 1 1/4V3 SNB02 P0000 FZRANO $
PAKH 140056Z AUTO 26004KT 10SM FEW047 SCT065 SCT085 M02/M03 A2933 RMK AO2 UPE00SNB00E28 SLP935 P0000 T10171033 FZRANO $
PAKH 140021Z AUTO 27010KT 9SM -SN FEW006 SCT013 BKN060 M02/M03 A2934 RMK AO2 UPE00SNB00 P0000 FZRANO $
PAKH 140014Z AUTO 27011KT 2 1/2SM -SN BR SCT009 SCT028 BKN048 M01/M03 A2934 RMK AO2 UPE00SNB00 P0000 FZRANO $
PAKH 140012Z AUTO 28013KT 1 1/2SM -SN BR BKN009 BKN023 OVC065 M01/M03 A2935 RMK AO2 UPE00SNB00 CIG 004V015 P0000 FZRANO $